Time;durP1;ratioP1;P1;durP2;ratioP2;P2;SDS_P1;SDS_P2;PMS_P1;PMS_P2;Temp;Humidity;BMP_temperature;BMP_pressure;BME280_temperature;BME280_humidity;BME280_pressure;Samples;Min_cycle;Max_cycle;Signal;HPM_P1;HPM_P2
2024/02/20 00:01:22;;;;;;;19.13;5.65;;;;;;;;;;4997182;28;20179;-92
2024/02/20 00:03:48;;;;;;;23.02;5.38;;;;;;;;;;4986954;28;20266;-92
2024/02/20 00:06:14;;;;;;;31.53;5.00;;;;;;;;;;4981524;28;20194;-92
2024/02/20 00:08:40;;;;;;;19.15;4.78;;;;;;;;;;4986973;28;20913;-90
2024/02/20 00:11:06;;;;;;;20.33;4.97;;;;;;;;;;4999882;28;20196;-92
2024/02/20 00:13:32;;;;;;;23.90;5.93;;;;;;;;;;4999143;28;20422;-92
2024/02/20 00:15:59;;;;;;;23.30;5.97;;;;;;;;;;4979320;28;20172;-93
2024/02/20 00:18:25;;;;;;;17.58;4.88;;;;;;;;;;5001066;28;20175;-92
2024/02/20 00:20:51;;;;;;;19.60;4.50;;;;;;;;;;4999323;28;20206;-91
2024/02/20 00:23:17;;;;;;;25.83;4.97;;;;;;;;;;4996590;28;20178;-91
2024/02/20 00:25:45;;;;;;;21.02;5.55;;;;;;;;;;4998017;28;20427;-92
2024/02/20 00:28:11;;;;;;;18.73;5.28;;;;;;;;;;5004800;28;20179;-93
2024/02/20 00:30:37;;;;;;;24.33;5.53;;;;;;;;;;4998706;28;20238;-93
2024/02/20 00:33:03;;;;;;;24.45;7.85;;;;;;;;;;5007299;28;20437;-93
2024/02/20 00:35:30;;;;;;;20.55;5.25;;;;;;;;;;5000001;28;20176;-93
2024/02/20 00:37:56;;;;;;;25.05;5.43;;;;;;;;;;5005318;28;20209;-92
2024/02/20 00:40:22;;;;;;;26.10;5.53;;;;;;;;;;4997630;28;20202;-92
2024/02/20 00:42:48;;;;;;;17.75;4.90;;;;;;;;;;4995481;28;20203;-93
2024/02/20 00:45:14;;;;;;;20.30;4.97;;;;;;;;;;4983887;28;20194;-93
2024/02/20 00:47:41;;;;;;;23.30;5.70;;;;;;;;;;4983726;28;20179;-93
2024/02/20 00:50:08;;;;;;;27.42;5.50;;;;;;;;;;4982221;28;20550;-93
2024/02/20 00:52:34;;;;;;;22.13;4.80;;;;;;;;;;4999028;28;20239;-93
2024/02/20 00:55:00;;;;;;;30.13;5.60;;;;;;;;;;4999201;28;20579;-92
2024/02/20 00:57:26;;;;;;;20.35;6.00;;;;;;;;;;4998233;28;20182;-92
2024/02/20 00:59:52;;;;;;;23.08;6.25;;;;;;;;;;4997550;28;20262;-91
2024/02/20 01:02:18;;;;;;;22.70;5.97;;;;;;;;;;4992093;28;20628;-91
2024/02/20 01:04:44;;;;;;;23.95;5.22;;;;;;;;;;4992797;28;20273;-92
2024/02/20 01:07:11;;;;;;;24.57;5.47;;;;;;;;;;4996703;28;20175;-90
2024/02/20 01:09:37;;;;;;;22.60;7.28;;;;;;;;;;4996571;28;20464;-91
2024/02/20 01:12:03;;;;;;;29.88;5.47;;;;;;;;;;4995862;28;20184;-92
2024/02/20 01:14:30;;;;;;;23.88;5.95;;;;;;;;;;4997801;28;20238;-91
2024/02/20 01:16:56;;;;;;;31.33;6.97;;;;;;;;;;4989735;28;20533;-92
2024/02/20 01:19:22;;;;;;;25.73;6.65;;;;;;;;;;4995488;28;20179;-91
2024/02/20 01:21:48;;;;;;;28.05;6.78;;;;;;;;;;4980134;28;20571;-92
2024/02/20 01:24:14;;;;;;;31.33;7.10;;;;;;;;;;4994865;28;20212;-91
2024/02/20 01:26:44;;;;;;;25.37;6.07;;;;;;;;;;4981724;28;20175;-91
2024/02/20 01:29:10;;;;;;;19.63;4.82;;;;;;;;;;4995702;28;20458;-92
2024/02/20 01:31:36;;;;;;;25.67;6.85;;;;;;;;;;4996501;28;20191;-93
2024/02/20 01:34:04;;;;;;;24.48;6.70;;;;;;;;;;4995703;28;20184;-92
2024/02/20 01:36:30;;;;;;;26.88;7.30;;;;;;;;;;4996238;28;20270;-92
2024/02/20 01:38:56;;;;;;;28.15;7.88;;;;;;;;;;4981211;28;20188;-92
2024/02/20 01:41:22;;;;;;;25.30;7.27;;;;;;;;;;4995822;28;20632;-92
2024/02/20 01:43:49;;;;;;;27.77;6.33;;;;;;;;;;4995969;28;20431;-93
2024/02/20 01:46:22;;;;;;;27.27;8.20;;;;;;;;;;4984502;28;20434;-92
2024/02/20 01:48:49;;;;;;;27.60;7.03;;;;;;;;;;4983363;28;20189;-92
2024/02/20 01:51:15;;;;;;;18.33;7.00;;;;;;;;;;4995902;28;20572;-92
2024/02/20 01:53:41;;;;;;;24.13;6.90;;;;;;;;;;4996792;28;20199;-92
2024/02/20 01:56:08;;;;;;;20.45;7.18;;;;;;;;;;4995930;28;20196;-92
2024/02/20 01:58:34;;;;;;;15.90;6.05;;;;;;;;;;4970097;28;20529;-90
2024/02/20 02:01:02;;;;;;;16.92;6.40;;;;;;;;;;4995995;28;20190;-92
2024/02/20 02:03:29;;;;;;;21.38;7.28;;;;;;;;;;4996744;28;20215;-91
2024/02/20 02:05:54;;;;;;;20.92;6.10;;;;;;;;;;4996946;28;20211;-91
2024/02/20 02:08:20;;;;;;;25.57;7.20;;;;;;;;;;4994418;28;20188;-92
2024/02/20 02:10:46;;;;;;;31.33;7.27;;;;;;;;;;4995149;28;20462;-92
2024/02/20 02:13:12;;;;;;;23.02;7.13;;;;;;;;;;4994755;28;20437;-92
2024/02/20 02:15:38;;;;;;;22.50;6.32;;;;;;;;;;4996254;28;20214;-92
2024/02/20 02:18:05;;;;;;;20.87;6.10;;;;;;;;;;4998084;28;20184;-92
2024/02/20 02:20:30;;;;;;;24.13;6.72;;;;;;;;;;5004907;28;20423;-92
2024/02/20 02:22:56;;;;;;;29.42;8.05;;;;;;;;;;5008734;28;20193;-91
2024/02/20 02:25:24;;;;;;;24.07;8.43;;;;;;;;;;5001263;28;20181;-92
2024/02/20 02:27:50;;;;;;;26.23;8.82;;;;;;;;;;4998763;28;20430;-93
2024/02/20 02:30:16;;;;;;;28.15;10.18;;;;;;;;;;5001135;28;20199;-92
2024/02/20 02:32:43;;;;;;;36.72;11.05;;;;;;;;;;4986990;28;20226;-92
2024/02/20 02:35:09;;;;;;;29.48;8.77;;;;;;;;;;5000389;28;20202;-92
2024/02/20 02:37:38;;;;;;;22.55;7.80;;;;;;;;;;5000661;28;20201;-92
2024/02/20 02:40:04;;;;;;;29.15;7.97;;;;;;;;;;4992498;28;20237;-92
2024/02/20 02:42:31;;;;;;;29.20;9.05;;;;;;;;;;5000399;28;20277;-93
2024/02/20 02:44:57;;;;;;;37.40;11.25;;;;;;;;;;4998407;28;20179;-92
2024/02/20 02:47:23;;;;;;;38.03;11.27;;;;;;;;;;4982724;28;20209;-92
2024/02/20 02:49:49;;;;;;;25.25;9.63;;;;;;;;;;4982428;28;20204;-92
2024/02/20 02:52:16;;;;;;;32.00;9.57;;;;;;;;;;4999486;28;20195;-92
2024/02/20 02:54:42;;;;;;;34.15;11.95;;;;;;;;;;4999296;28;20430;-93
2024/02/20 02:57:08;;;;;;;31.02;10.15;;;;;;;;;;4996917;28;20636;-92
2024/02/20 02:59:34;;;;;;;30.38;10.75;;;;;;;;;;4986996;28;20211;-92
2024/02/20 03:02:00;;;;;;;31.13;10.27;;;;;;;;;;4996920;28;20194;-92
2024/02/20 03:04:27;;;;;;;40.33;11.45;;;;;;;;;;4988838;28;20218;-92
2024/02/20 03:06:53;;;;;;;22.63;10.57;;;;;;;;;;4997964;28;20235;-92
2024/02/20 03:09:21;;;;;;;29.55;11.40;;;;;;;;;;5007175;28;20731;-92
2024/02/20 03:11:48;;;;;;;30.33;10.07;;;;;;;;;;5000786;28;20187;-92
2024/02/20 03:14:16;;;;;;;33.25;10.80;;;;;;;;;;4999160;28;20246;-92
2024/02/20 03:16:42;;;;;;;23.75;10.48;;;;;;;;;;4984995;28;20261;-91
2024/02/20 03:19:08;;;;;;;36.42;13.30;;;;;;;;;;4988594;28;20185;-93
2024/02/20 03:21:36;;;;;;;29.58;11.02;;;;;;;;;;4999721;28;20179;-93
2024/02/20 03:24:04;;;;;;;38.78;12.02;;;;;;;;;;4999728;28;20312;-93
2024/02/20 03:26:30;;;;;;;38.25;12.50;;;;;;;;;;5001615;28;20543;-93
2024/02/20 03:28:56;;;;;;;22.48;9.48;;;;;;;;;;5000042;28;20199;-92
2024/02/20 03:31:23;;;;;;;29.65;10.90;;;;;;;;;;4997622;28;20191;-92
2024/02/20 03:33:49;;;;;;;22.88;10.98;;;;;;;;;;4998138;28;20185;-92
2024/02/20 03:36:15;;;;;;;40.00;11.57;;;;;;;;;;5001731;28;20262;-92
2024/02/20 03:38:41;;;;;;;30.67;12.40;;;;;;;;;;4999888;28;20715;-91
2024/02/20 03:41:07;;;;;;;38.30;13.63;;;;;;;;;;5004140;28;20210;-92
2024/02/20 03:43:35;;;;;;;30.42;11.10;;;;;;;;;;4990069;28;20178;-93
2024/02/20 03:46:03;;;;;;;34.88;11.70;;;;;;;;;;4985151;28;20175;-92
2024/02/20 03:48:29;;;;;;;43.38;13.98;;;;;;;;;;4980194;28;20301;-92
2024/02/20 03:50:55;;;;;;;32.13;12.15;;;;;;;;;;4999669;28;20282;-92
2024/02/20 03:53:21;;;;;;;35.53;11.10;;;;;;;;;;5002856;28;20179;-92
2024/02/20 03:55:48;;;;;;;40.72;13.18;;;;;;;;;;4998512;28;20477;-92
2024/02/20 03:58:14;;;;;;;33.63;13.77;;;;;;;;;;4987475;28;20266;-91
2024/02/20 04:00:40;;;;;;;36.65;13.68;;;;;;;;;;4997741;28;20533;-92
2024/02/20 04:03:06;;;;;;;24.73;12.30;;;;;;;;;;4998314;28;20266;-92
2024/02/20 04:05:33;;;;;;;38.30;13.80;;;;;;;;;;4986822;28;20267;-91
2024/02/20 04:07:59;;;;;;;30.20;14.27;;;;;;;;;;4998597;28;20658;-93
2024/02/20 04:10:25;;;;;;;37.17;13.45;;;;;;;;;;4982768;28;20207;-92
2024/02/20 04:12:51;;;;;;;38.85;13.40;;;;;;;;;;4998759;28;20183;-93
2024/02/20 04:15:17;;;;;;;28.92;12.23;;;;;;;;;;4974665;28;20322;-92
2024/02/20 04:17:43;;;;;;;42.30;12.93;;;;;;;;;;4997798;28;20199;-92
2024/02/20 04:20:11;;;;;;;38.47;12.07;;;;;;;;;;4984131;28;20647;-92
2024/02/20 04:22:37;;;;;;;27.40;12.80;;;;;;;;;;4989818;28;20187;-92
2024/02/20 04:25:05;;;;;;;34.00;12.60;;;;;;;;;;4998773;28;20194;-92
2024/02/20 04:27:31;;;;;;;33.63;12.18;;;;;;;;;;4987899;28;20198;-92
2024/02/20 04:29:57;;;;;;;33.10;14.00;;;;;;;;;;5004708;28;20241;-92
2024/02/20 04:32:23;;;;;;;40.20;13.63;;;;;;;;;;4981297;28;20189;-91
2024/02/20 04:34:49;;;;;;;35.90;13.70;;;;;;;;;;4999878;28;20270;-92
2024/02/20 04:37:15;;;;;;;29.25;13.30;;;;;;;;;;4997042;28;20267;-92
2024/02/20 04:39:43;;;;;;;36.65;14.68;;;;;;;;;;4997221;28;20528;-92
2024/02/20 04:42:09;;;;;;;44.85;16.13;;;;;;;;;;4998931;28;20175;-92
2024/02/20 04:44:37;;;;;;;41.38;16.02;;;;;;;;;;4982446;28;20280;-92
2024/02/20 04:47:03;;;;;;;26.75;12.52;;;;;;;;;;4998356;28;20183;-92
2024/02/20 04:49:29;;;;;;;32.50;13.30;;;;;;;;;;5001282;28;20289;-92
2024/02/20 04:51:55;;;;;;;28.73;13.23;;;;;;;;;;4996765;28;20223;-92
2024/02/20 04:54:21;;;;;;;32.95;13.88;;;;;;;;;;4998345;28;20437;-92
2024/02/20 04:56:47;;;;;;;32.80;15.10;;;;;;;;;;4997527;28;20167;-93
2024/02/20 04:59:14;;;;;;;31.63;13.57;;;;;;;;;;4992660;28;20175;-91
2024/02/20 05:01:40;;;;;;;32.08;12.48;;;;;;;;;;4985444;28;20776;-92
2024/02/20 05:04:07;;;;;;;30.67;13.60;;;;;;;;;;4999004;28;20602;-93
2024/02/20 05:06:33;;;;;;;28.15;11.82;;;;;;;;;;4997271;28;20172;-93
2024/02/20 05:08:59;;;;;;;30.70;12.52;;;;;;;;;;4998447;28;20231;-92
2024/02/20 05:11:25;;;;;;;33.25;13.88;;;;;;;;;;4996782;28;20210;-92
2024/02/20 05:13:51;;;;;;;35.10;12.82;;;;;;;;;;5005082;28;20183;-92
2024/02/20 05:16:17;;;;;;;36.50;13.77;;;;;;;;;;4980416;28;20262;-92
2024/02/20 05:18:43;;;;;;;30.93;14.13;;;;;;;;;;4998454;28;20211;-92
2024/02/20 05:21:09;;;;;;;29.50;14.88;;;;;;;;;;4993270;28;20465;-92
2024/02/20 05:23:35;;;;;;;37.07;15.50;;;;;;;;;;4978805;28;20171;-93
2024/02/20 05:26:01;;;;;;;36.65;14.30;;;;;;;;;;4997600;28;20821;-93
2024/02/20 05:28:27;;;;;;;33.13;13.90;;;;;;;;;;4997769;28;20175;-92
2024/02/20 05:30:54;;;;;;;30.50;14.50;;;;;;;;;;4997325;28;20551;-92
2024/02/20 05:33:20;;;;;;;40.05;17.13;;;;;;;;;;4993184;28;20194;-93
2024/02/20 05:35:46;;;;;;;24.40;13.75;;;;;;;;;;5002087;28;20179;-93
2024/02/20 05:38:16;;;;;;;28.75;13.98;;;;;;;;;;4998522;28;20179;-93
2024/02/20 05:40:42;;;;;;;37.30;15.70;;;;;;;;;;4998112;28;20182;-93
2024/02/20 05:43:08;;;;;;;39.83;14.87;;;;;;;;;;4997158;28;20179;-93
2024/02/20 05:45:34;;;;;;;30.27;14.38;;;;;;;;;;4997803;28;20413;-93
2024/02/20 05:48:03;;;;;;;39.60;15.68;;;;;;;;;;4999416;28;20182;-93
2024/02/20 05:50:31;;;;;;;43.03;15.85;;;;;;;;;;4999256;28;20199;-93
2024/02/20 05:52:57;;;;;;;48.08;17.33;;;;;;;;;;4978685;28;20191;-93
2024/02/20 05:55:23;;;;;;;41.20;16.45;;;;;;;;;;4996515;28;20182;-93
2024/02/20 05:57:49;;;;;;;30.47;15.27;;;;;;;;;;4982773;28;20190;-93
2024/02/20 06:00:15;;;;;;;43.13;16.48;;;;;;;;;;4999567;28;20463;-93
2024/02/20 06:02:42;;;;;;;37.80;16.02;;;;;;;;;;4982196;28;20559;-93
2024/02/20 06:05:08;;;;;;;35.38;14.32;;;;;;;;;;5004992;28;20175;-93
2024/02/20 06:07:37;;;;;;;34.90;14.70;;;;;;;;;;4992202;28;20743;-93
2024/02/20 06:10:03;;;;;;;39.22;15.93;;;;;;;;;;4998729;28;20207;-93
2024/02/20 06:12:31;;;;;;;35.97;16.00;;;;;;;;;;4998008;28;20230;-93
2024/02/20 06:14:57;;;;;;;38.83;15.15;;;;;;;;;;4998468;28;20753;-92
2024/02/20 06:17:23;;;;;;;34.33;15.75;;;;;;;;;;4988449;28;20277;-92
2024/02/20 06:19:49;;;;;;;31.02;14.60;;;;;;;;;;4997097;28;20175;-93
2024/02/20 06:22:15;;;;;;;31.25;15.10;;;;;;;;;;4993802;28;20184;-93
2024/02/20 06:24:41;;;;;;;41.97;15.65;;;;;;;;;;4996406;28;20188;-93
2024/02/20 06:27:07;;;;;;;32.97;14.70;;;;;;;;;;4998429;28;20263;-93
2024/02/20 06:29:34;;;;;;;42.05;16.58;;;;;;;;;;5000364;28;20200;-93
2024/02/20 06:32:00;;;;;;;51.15;14.07;;;;;;;;;;4994484;28;20187;-94
2024/02/20 06:34:26;;;;;;;37.60;14.90;;;;;;;;;;4986707;28;20238;-94
2024/02/20 06:36:52;;;;;;;44.45;16.80;;;;;;;;;;4999943;28;20186;-94
2024/02/20 06:39:18;;;;;;;32.30;16.25;;;;;;;;;;5003889;28;20188;-93
2024/02/20 06:41:44;;;;;;;31.40;15.50;;;;;;;;;;4979279;28;20267;-94
2024/02/20 06:44:10;;;;;;;39.42;15.52;;;;;;;;;;4984118;28;20230;-94
2024/02/20 06:46:40;;;;;;;40.83;15.25;;;;;;;;;;4998491;28;20172;-94
2024/02/20 06:49:06;;;;;;;39.22;15.25;;;;;;;;;;4997406;28;20262;-94
2024/02/20 06:51:32;;;;;;;38.00;15.55;;;;;;;;;;4988796;28;20639;-94
2024/02/20 06:53:58;;;;;;;35.67;15.65;;;;;;;;;;4982219;28;20168;-94
2024/02/20 06:56:24;;;;;;;35.08;14.68;;;;;;;;;;4983306;28;20192;-93
2024/02/20 06:58:50;;;;;;;32.35;16.40;;;;;;;;;;4999640;28;20179;-94
2024/02/20 07:01:16;;;;;;;26.50;13.55;;;;;;;;;;4999133;28;20215;-94
2024/02/20 07:03:43;;;;;;;39.17;13.93;;;;;;;;;;4984865;28;20223;-94
2024/02/20 07:06:09;;;;;;;39.78;14.48;;;;;;;;;;5008611;28;20235;-93
2024/02/20 07:08:35;;;;;;;33.60;14.38;;;;;;;;;;5001946;28;20209;-94
2024/02/20 07:11:01;;;;;;;32.00;14.70;;;;;;;;;;4987195;28;20207;-93
2024/02/20 07:13:34;;;;;;;42.47;13.53;;;;;;;;;;4986177;28;20234;-93
2024/02/20 07:16:03;;;;;;;48.50;15.90;;;;;;;;;;5010484;28;20405;-94
2024/02/20 07:18:29;;;;;;;36.15;14.35;;;;;;;;;;5000875;28;20171;-93
2024/02/20 07:20:55;;;;;;;31.98;14.48;;;;;;;;;;5000919;28;20188;-94
2024/02/20 07:23:21;;;;;;;34.60;13.80;;;;;;;;;;4981634;28;20186;-94
2024/02/20 07:25:47;;;;;;;35.15;15.20;;;;;;;;;;4984277;28;20171;-94
2024/02/20 07:28:13;;;;;;;29.20;14.05;;;;;;;;;;5002628;28;20171;-93
2024/02/20 07:30:39;;;;;;;58.72;15.85;;;;;;;;;;4991848;28;20229;-93
2024/02/20 07:33:05;;;;;;;40.87;16.50;;;;;;;;;;4987376;28;20203;-93
2024/02/20 07:35:31;;;;;;;41.88;14.52;;;;;;;;;;5001479;28;20414;-92
2024/02/20 07:37:57;;;;;;;31.87;14.70;;;;;;;;;;4984617;28;20610;-93
2024/02/20 07:40:23;;;;;;;40.47;15.73;;;;;;;;;;5004391;28;20498;-93
2024/02/20 07:42:50;;;;;;;45.72;17.15;;;;;;;;;;5005509;28;20223;-93
2024/02/20 07:45:16;;;;;;;42.50;15.43;;;;;;;;;;5002338;28;20525;-93
2024/02/20 07:47:42;;;;;;;44.90;16.50;;;;;;;;;;5005122;28;20171;-94
2024/02/20 07:50:08;;;;;;;42.58;17.48;;;;;;;;;;5010157;28;20275;-93
2024/02/20 07:52:34;;;;;;;45.03;17.05;;;;;;;;;;5002109;28;20185;-93
2024/02/20 07:55:00;;;;;;;38.78;18.55;;;;;;;;;;4999385;28;20183;-93
2024/02/20 07:57:26;;;;;;;52.17;19.05;;;;;;;;;;4990030;28;20635;-93
2024/02/20 07:59:52;;;;;;;44.72;18.77;;;;;;;;;;5008996;28;20189;-94
2024/02/20 08:02:18;;;;;;;48.22;19.88;;;;;;;;;;5003650;28;20201;-93
2024/02/20 08:04:45;;;;;;;46.67;20.10;;;;;;;;;;5003590;28;20226;-93
2024/02/20 08:07:11;;;;;;;58.60;21.17;;;;;;;;;;4984377;28;20666;-94
2024/02/20 08:09:37;;;;;;;45.20;19.08;;;;;;;;;;5000444;28;20205;-94
2024/02/20 08:12:04;;;;;;;45.20;19.95;;;;;;;;;;5002444;28;20190;-94
2024/02/20 08:14:30;;;;;;;47.28;18.67;;;;;;;;;;5009279;28;20191;-94
2024/02/20 08:16:56;;;;;;;31.67;18.33;;;;;;;;;;5011620;28;20204;-94
2024/02/20 08:19:22;;;;;;;35.95;18.58;;;;;;;;;;4983576;28;20221;-95
2024/02/20 08:21:48;;;;;;;44.60;21.58;;;;;;;;;;4998143;28;20202;-94
2024/02/20 08:24:15;;;;;;;49.97;20.90;;;;;;;;;;5001414;28;20188;-95
2024/02/20 08:26:41;;;;;;;57.53;20.80;;;;;;;;;;4986489;28;20426;-94
2024/02/20 08:29:08;;;;;;;54.47;20.17;;;;;;;;;;4997761;28;20258;-95
2024/02/20 08:31:34;;;;;;;56.17;21.15;;;;;;;;;;5000868;28;20172;-95
2024/02/20 08:34:01;;;;;;;36.60;19.98;;;;;;;;;;5002621;28;20201;-95
2024/02/20 08:36:27;;;;;;;48.05;20.35;;;;;;;;;;5000391;28;20612;-95
2024/02/20 08:38:53;;;;;;;53.38;18.38;;;;;;;;;;5003812;28;20197;-94
2024/02/20 08:41:19;;;;;;;47.85;20.90;;;;;;;;;;5001129;28;20186;-95
2024/02/20 08:43:48;;;;;;;44.35;19.80;;;;;;;;;;4995873;28;20186;-95
2024/02/20 08:46:14;;;;;;;50.03;20.17;;;;;;;;;;5005405;28;20281;-94
2024/02/20 08:48:40;;;;;;;47.85;19.15;;;;;;;;;;4994152;28;20179;-95
2024/02/20 08:51:06;;;;;;;47.42;19.30;;;;;;;;;;4987025;28;20218;-96
2024/02/20 08:53:32;;;;;;;56.80;21.40;;;;;;;;;;4994470;28;20210;-96
2024/02/20 08:56:00;;;;;;;56.88;19.73;;;;;;;;;;5009704;28;20638;-96
2024/02/20 08:58:26;;;;;;;75.43;35.13;;;;;;;;;;5000491;28;20202;-95
2024/02/20 09:00:52;;;;;;;46.42;20.45;;;;;;;;;;5000221;28;20189;-95
2024/02/20 09:03:18;;;;;;;48.42;25.52;;;;;;;;;;4999824;28;20255;-95
2024/02/20 09:05:45;;;;;;;68.15;30.85;;;;;;;;;;5000436;28;20195;-95
2024/02/20 09:08:11;;;;;;;52.08;20.20;;;;;;;;;;5001478;28;20565;-95
2024/02/20 09:10:38;;;;;;;48.25;20.20;;;;;;;;;;5008224;28;20213;-96
2024/02/20 09:13:06;;;;;;;53.35;20.17;;;;;;;;;;5009428;28;20175;-95
2024/02/20 09:15:31;;;;;;;45.25;19.50;;;;;;;;;;4986758;28;20176;-95
2024/02/20 09:18:00;;;;;;;40.22;17.92;;;;;;;;;;5009869;28;20185;-96
2024/02/20 09:20:26;;;;;;;42.10;17.85;;;;;;;;;;5012522;28;20178;-96
2024/02/20 09:22:54;;;;;;;50.97;18.65;;;;;;;;;;5007255;28;20578;-94
2024/02/20 09:25:20;;;;;;;45.35;18.52;;;;;;;;;;4995334;28;20187;-95
2024/02/20 09:27:47;;;;;;;42.80;18.60;;;;;;;;;;5007997;28;20182;-95
2024/02/20 09:30:13;;;;;;;40.42;17.02;;;;;;;;;;5011565;28;20202;-95
2024/02/20 09:32:43;;;;;;;51.13;18.45;;;;;;;;;;5012270;28;20167;-96
2024/02/20 09:35:09;;;;;;;40.53;17.10;;;;;;;;;;5019179;28;20187;-96
2024/02/20 09:37:35;;;;;;;51.13;19.15;;;;;;;;;;4992088;28;20181;-88
2024/02/20 09:40:01;;;;;;;47.07;19.23;;;;;;;;;;4994438;28;20210;-87
2024/02/20 09:42:29;;;;;;;41.13;16.30;;;;;;;;;;4981791;28;20461;-87
2024/02/20 09:44:55;;;;;;;40.58;16.92;;;;;;;;;;4998456;28;20304;-87
2024/02/20 09:47:22;;;;;;;41.67;15.63;;;;;;;;;;4993658;28;20187;-84
2024/02/20 09:49:53;;;;;;;35.45;15.10;;;;;;;;;;4994442;28;20194;-86
2024/02/20 09:52:20;;;;;;;33.90;15.80;;;;;;;;;;4980862;28;20179;-87
2024/02/20 09:54:47;;;;;;;41.80;17.27;;;;;;;;;;4994048;28;20191;-87
2024/02/20 09:57:16;;;;;;;41.65;15.15;;;;;;;;;;4974316;28;20213;-87
2024/02/20 09:59:45;;;;;;;32.85;15.90;;;;;;;;;;4987417;28;20174;-86
2024/02/20 10:02:30;;;;;;;40.20;14.32;;;;;;;;;;4994208;28;20189;-87
2024/02/20 10:04:58;;;;;;;36.08;14.55;;;;;;;;;;4993111;28;20183;-85
2024/02/20 10:07:24;;;;;;;35.30;15.90;;;;;;;;;;4980086;28;20191;-86
2024/02/20 10:09:50;;;;;;;37.25;15.18;;;;;;;;;;4993620;28;20685;-86
2024/02/20 10:12:20;;;;;;;29.13;13.10;;;;;;;;;;4993461;28;20195;-86
2024/02/20 10:14:46;;;;;;;31.60;14.15;;;;;;;;;;4996567;28;20190;-87
2024/02/20 10:17:14;;;;;;;29.85;12.73;;;;;;;;;;4992356;28;20212;-87
2024/02/20 10:19:40;;;;;;;34.85;12.75;;;;;;;;;;4992609;28;20235;-87
2024/02/20 10:22:06;;;;;;;29.63;13.03;;;;;;;;;;4965694;28;20191;-87
2024/02/20 10:24:32;;;;;;;29.02;13.13;;;;;;;;;;4978772;28;20521;-87
2024/02/20 10:26:58;;;;;;;31.50;12.83;;;;;;;;;;4979012;28;20639;-86
2024/02/20 10:29:27;;;;;;;32.37;12.70;;;;;;;;;;4988809;28;20466;-86
2024/02/20 10:31:53;;;;;;;38.95;13.50;;;;;;;;;;4989653;28;20422;-84
2024/02/20 10:34:22;;;;;;;26.70;14.13;;;;;;;;;;4975314;28;20577;-87
2024/02/20 10:36:48;;;;;;;28.45;14.43;;;;;;;;;;4975186;28;20238;-86
2024/02/20 10:39:14;;;;;;;20.97;13.27;;;;;;;;;;4986801;28;20183;-86
2024/02/20 10:41:41;;;;;;;26.42;11.93;;;;;;;;;;4997130;28;20783;-85
2024/02/20 10:44:08;;;;;;;31.10;11.98;;;;;;;;;;4994131;28;20202;-86
2024/02/20 10:46:38;;;;;;;25.05;12.13;;;;;;;;;;5000920;28;20167;-86
2024/02/20 10:49:23;;;;;;;31.48;11.85;;;;;;;;;;4995244;28;20183;-86
2024/02/20 10:51:50;;;;;;;33.15;12.57;;;;;;;;;;5001243;28;20184;-86
2024/02/20 10:54:16;;;;;;;24.02;11.35;;;;;;;;;;4991969;28;20175;-86
2024/02/20 10:56:43;;;;;;;33.30;11.18;;;;;;;;;;4997766;28;20191;-86
2024/02/20 10:59:10;;;;;;;27.55;11.85;;;;;;;;;;4997977;28;20561;-86
2024/02/20 11:01:38;;;;;;;27.70;12.90;;;;;;;;;;5000305;28;20195;-86
2024/02/20 11:04:04;;;;;;;27.20;11.35;;;;;;;;;;5005659;28;20228;-85
2024/02/20 11:06:32;;;;;;;23.83;11.10;;;;;;;;;;4983351;28;20577;-85
2024/02/20 11:09:13;;;;;;;28.77;11.32;;;;;;;;;;5014875;28;20258;-86
2024/02/20 11:11:39;;;;;;;22.95;10.55;;;;;;;;;;4998590;28;20674;-85
2024/02/20 11:14:07;;;;;;;23.63;10.75;;;;;;;;;;4996820;28;20194;-85
2024/02/20 11:16:37;;;;;;;27.13;11.20;;;;;;;;;;4998577;28;20532;-86
2024/02/20 11:19:04;;;;;;;28.77;9.55;;;;;;;;;;4997985;28;20223;-85
2024/02/20 11:21:30;;;;;;;23.15;8.90;;;;;;;;;;4989621;28;20184;-85
2024/02/20 11:23:57;;;;;;;30.55;9.10;;;;;;;;;;4997568;28;20176;-85
2024/02/20 11:26:27;;;;;;;20.17;8.60;;;;;;;;;;4993397;28;20522;-85
2024/02/20 11:28:54;;;;;;;17.10;8.32;;;;;;;;;;4997688;28;20171;-84
2024/02/20 11:31:27;;;;;;;18.42;8.68;;;;;;;;;;4999201;28;20210;-85
2024/02/20 11:33:57;;;;;;;23.35;9.68;;;;;;;;;;4975285;28;20233;-85
2024/02/20 11:36:23;;;;;;;17.63;8.43;;;;;;;;;;4996209;28;20182;-84
2024/02/20 11:39:02;;;;;;;21.02;8.05;;;;;;;;;;5001800;28;20266;-85
2024/02/20 11:41:28;;;;;;;28.80;8.68;;;;;;;;;;4996104;28;20641;-84
2024/02/20 11:44:03;;;;;;;23.52;8.25;;;;;;;;;;4997335;28;20535;-84
2024/02/20 11:46:30;;;;;;;18.00;6.90;;;;;;;;;;4975835;28;20174;-85
2024/02/20 11:48:56;;;;;;;18.52;7.20;;;;;;;;;;4997725;28;20179;-84
2024/02/20 11:51:24;;;;;;;16.93;8.40;;;;;;;;;;4995715;28;20326;-84
2024/02/20 11:53:54;;;;;;;14.93;6.82;;;;;;;;;;4988372;28;20449;-85
2024/02/20 11:56:20;;;;;;;21.70;8.02;;;;;;;;;;4998441;28;20175;-84
2024/02/20 11:58:46;;;;;;;15.68;6.70;;;;;;;;;;4994933;28;20180;-83
2024/02/20 12:01:15;;;;;;;21.60;7.30;;;;;;;;;;4996778;28;20289;-84
2024/02/20 12:03:43;;;;;;;18.58;6.43;;;;;;;;;;4997290;28;20474;-84
2024/02/20 12:06:09;;;;;;;15.50;6.75;;;;;;;;;;4993461;28;20186;-83
2024/02/20 12:08:48;;;;;;;23.40;7.57;;;;;;;;;;4999313;28;20209;-84
2024/02/20 12:11:19;;;;;;;19.73;6.20;;;;;;;;;;4995393;28;20717;-84
2024/02/20 12:13:46;;;;;;;16.17;6.07;;;;;;;;;;4984172;28;20532;-84
2024/02/20 12:16:20;;;;;;;16.05;5.80;;;;;;;;;;4997279;28;20182;-84
2024/02/20 12:18:47;;;;;;;13.10;6.35;;;;;;;;;;4983902;28;20179;-84
2024/02/20 12:21:13;;;;;;;15.77;5.53;;;;;;;;;;4998890;28;20183;-84
2024/02/20 12:23:40;;;;;;;19.63;6.10;;;;;;;;;;4997739;28;20649;-84
2024/02/20 12:26:06;;;;;;;13.70;5.28;;;;;;;;;;4996662;28;20167;-84
2024/02/20 12:28:33;;;;;;;26.08;5.88;;;;;;;;;;4974317;28;20182;-84
2024/02/20 12:30:59;;;;;;;18.45;5.25;;;;;;;;;;4997079;28;20200;-84
2024/02/20 12:33:25;;;;;;;13.35;4.22;;;;;;;;;;4997295;28;20200;-83
2024/02/20 12:35:51;;;;;;;18.20;6.03;;;;;;;;;;4996384;28;20172;-83
2024/02/20 12:38:18;;;;;;;16.42;5.32;;;;;;;;;;4995001;28;20187;-84
2024/02/20 12:40:44;;;;;;;10.32;4.30;;;;;;;;;;4997615;28;20176;-85
2024/02/20 12:43:10;;;;;;;17.40;4.23;;;;;;;;;;4995392;28;20547;-84
2024/02/20 12:45:36;;;;;;;14.53;4.73;;;;;;;;;;4999152;28;20524;-84
2024/02/20 12:48:03;;;;;;;14.67;4.17;;;;;;;;;;4996768;28;20430;-84
2024/02/20 12:50:30;;;;;;;17.77;4.28;;;;;;;;;;4982237;28;20489;-84
2024/02/20 12:52:56;;;;;;;11.45;3.83;;;;;;;;;;4996048;28;20510;-84
2024/02/20 12:55:22;;;;;;;22.17;4.80;;;;;;;;;;4994813;28;20266;-84
2024/02/20 12:57:48;;;;;;;11.47;4.10;;;;;;;;;;5001282;28;20258;-84
2024/02/20 13:00:14;;;;;;;11.40;3.73;;;;;;;;;;5002759;28;20422;-84
2024/02/20 13:02:40;;;;;;;17.42;5.13;;;;;;;;;;4996419;28;20482;-84
2024/02/20 13:05:06;;;;;;;11.70;5.00;;;;;;;;;;4979900;28;20524;-84
2024/02/20 13:07:32;;;;;;;19.63;4.40;;;;;;;;;;4998266;28;20429;-84
2024/02/20 13:09:58;;;;;;;16.27;4.43;;;;;;;;;;5008024;28;20589;-83
2024/02/20 13:12:28;;;;;;;16.50;5.13;;;;;;;;;;4994471;28;20487;-84
2024/02/20 13:14:54;;;;;;;20.67;4.10;;;;;;;;;;5003753;28;20430;-85
2024/02/20 13:17:20;;;;;;;18.25;4.22;;;;;;;;;;4990969;28;20218;-83
2024/02/20 13:19:46;;;;;;;11.65;4.50;;;;;;;;;;4980768;28;20177;-82
2024/02/20 13:22:12;;;;;;;19.90;4.87;;;;;;;;;;4998678;28;20205;-84
2024/02/20 13:24:41;;;;;;;15.30;4.47;;;;;;;;;;4995798;28;20411;-83
2024/02/20 13:27:11;;;;;;;13.10;3.92;;;;;;;;;;4993182;28;20187;-83
2024/02/20 13:29:37;;;;;;;12.70;4.35;;;;;;;;;;4995199;28;20564;-84
2024/02/20 13:32:03;;;;;;;16.67;4.15;;;;;;;;;;4997882;28;20516;-83
2024/02/20 13:34:30;;;;;;;19.48;4.75;;;;;;;;;;5000003;28;20182;-83
2024/02/20 13:36:59;;;;;;;13.63;4.10;;;;;;;;;;4996863;28;20183;-83
2024/02/20 13:39:25;;;;;;;12.98;4.10;;;;;;;;;;4991025;28;20525;-83
2024/02/20 13:41:51;;;;;;;15.33;4.53;;;;;;;;;;4997457;28;20263;-82
2024/02/20 13:44:17;;;;;;;11.55;3.35;;;;;;;;;;4994719;28;20534;-83
2024/02/20 13:46:43;;;;;;;17.67;4.25;;;;;;;;;;4995150;28;20183;-82
2024/02/20 13:49:20;;;;;;;14.75;4.43;;;;;;;;;;4995958;28;20235;-83
2024/02/20 13:51:46;;;;;;;13.73;3.90;;;;;;;;;;4979575;28;20201;-83
2024/02/20 13:54:12;;;;;;;13.00;4.10;;;;;;;;;;4994921;28;20266;-83
2024/02/20 13:56:38;;;;;;;16.30;3.80;;;;;;;;;;4999687;28;20429;-83
2024/02/20 13:59:04;;;;;;;14.53;3.80;;;;;;;;;;5003495;28;20431;-83
2024/02/20 14:01:30;;;;;;;16.83;4.20;;;;;;;;;;5000970;28;20450;-83
2024/02/20 14:03:56;;;;;;;20.03;4.33;;;;;;;;;;4978398;28;20480;-82
2024/02/20 14:06:22;;;;;;;11.18;4.10;;;;;;;;;;4977876;28;20418;-82
2024/02/20 14:08:48;;;;;;;13.77;3.08;;;;;;;;;;4985417;28;20190;-82
2024/02/20 14:11:18;;;;;;;9.18;2.60;;;;;;;;;;4995156;28;20207;-84
2024/02/20 14:13:45;;;;;;;14.02;3.80;;;;;;;;;;4985438;28;20187;-82
2024/02/20 14:16:15;;;;;;;8.88;3.30;;;;;;;;;;4995198;28;20183;-83
2024/02/20 14:18:41;;;;;;;15.93;4.10;;;;;;;;;;4995505;28;20210;-83